Time;durP1;ratioP1;P1;durP2;ratioP2;P2;SDS_P1;SDS_P2;PMS_P1;PMS_P2;Temp;Humidity;BMP_temperature;BMP_pressure;BME280_temperature;BME280_humidity;BME280_pressure;Samples;Min_cycle;Max_cycle;Signal;HPM_P1;HPM_P2
2021/12/10 00:01:43;;;;;;;;;;;18.90;48.70;;;;;;5067032;28;43499;-80
2021/12/10 00:04:09;;;;;;;;;;;19.00;49.20;;;;;;5066854;28;42940;-80
2021/12/10 00:06:40;;;;;;;;;;;18.80;48.20;;;;;;5066782;28;43583;-81
2021/12/10 00:09:14;;;;;;;;;;;19.00;48.90;;;;;;5067069;28;42991;-80
2021/12/10 00:11:41;;;;;;;;;;;18.90;49.20;;;;;;5066847;28;42788;-81
2021/12/10 00:14:07;;;;;;;;;;;18.90;49.30;;;;;;5066692;28;42870;-80
2021/12/10 00:16:34;;;;;;;;;;;19.00;49.30;;;;;;5066732;28;43851;-80
2021/12/10 00:21:56;;;;;;;;;;;18.90;49.20;;;;;;5061546;28;43567;-79
2021/12/10 00:24:27;;;;;;;;;;;18.90;48.80;;;;;;5066539;28;42949;-78
2021/12/10 00:26:53;;;;;;;;;;;18.90;49.40;;;;;;5066976;28;43367;-78
2021/12/10 00:29:19;;;;;;;;;;;19.00;48.40;;;;;;5066915;28;42954;-79
2021/12/10 00:31:50;;;;;;;;;;;19.00;49.10;;;;;;5056692;28;43078;-78
2021/12/10 00:34:28;;;;;;;;;;;18.90;48.90;;;;;;5045819;28;43045;-78
2021/12/10 00:36:55;;;;;;;;;;;18.80;48.10;;;;;;5046335;28;42930;-78
2021/12/10 00:39:23;;;;;;;;;;;18.90;47.70;;;;;;5046212;28;42894;-79
2021/12/10 00:41:48;;;;;;;;;;;18.80;47.30;;;;;;5046055;28;42887;-79
2021/12/10 00:44:14;;;;;;;;;;;18.80;47.20;;;;;;5046252;28;42952;-79
2021/12/10 00:46:40;;;;;;;;;;;18.80;47.40;;;;;;5046372;28;42951;-78
2021/12/10 00:49:07;;;;;;;;;;;18.80;47.80;;;;;;5046256;28;42974;-78
2021/12/10 00:51:33;;;;;;;;;;;18.90;47.60;;;;;;5046055;28;42907;-79
2021/12/10 00:53:59;;;;;;;;;;;18.90;48.00;;;;;;5046149;28;42781;-78
2021/12/10 00:56:24;;;;;;;;;;;19.00;47.80;;;;;;5045678;28;43369;-79
2021/12/10 00:58:50;;;;;;;;;;;18.80;48.20;;;;;;5046003;28;42866;-78
2021/12/10 01:01:17;;;;;;;;;;;19.00;49.00;;;;;;5045508;28;43020;-78
2021/12/10 01:03:52;;;;;;;;;;;18.80;47.70;;;;;;5045677;28;42935;-78
2021/12/10 01:06:19;;;;;;;;;;;18.90;47.50;;;;;;5046439;28;42996;-78
2021/12/10 01:08:47;;;;;;;;;;;19.00;48.00;;;;;;5046074;28;42799;-79
2021/12/10 01:11:32;;;;;;;;;;;18.90;48.50;;;;;;5045774;28;42963;-80
2021/12/10 01:14:08;;;;;;;;;;;18.90;47.70;;;;;;5046061;28;43065;-79
2021/12/10 01:24:53;;;;;;;;;;;18.90;48.00;;;;;;5045083;28;42973;-79
2021/12/10 01:27:33;;;;;;;;;;;18.90;49.40;;;;;;5045213;28;43634;-79
2021/12/10 01:30:02;;;;;;;;;;;18.90;48.40;;;;;;5044662;28;42989;-78
2021/12/10 01:32:31;;;;;;;;;;;19.00;48.60;;;;;;5044894;28;43086;-78
2021/12/10 01:34:57;;;;;;;;;;;18.90;50.30;;;;;;5045172;28;42916;-78
2021/12/10 01:37:24;;;;;;;;;;;18.90;49.80;;;;;;5045117;28;42886;-78
2021/12/10 01:39:50;;;;;;;;;;;18.90;49.80;;;;;;5045399;28;42875;-78
2021/12/10 01:42:29;;;;;;;;;;;18.90;48.90;;;;;;5045442;28;43015;-80
2021/12/10 01:44:57;;;;;;;;;;;18.90;49.20;;;;;;5045070;28;42790;-79
2021/12/10 01:47:27;;;;;;;;;;;18.90;51.60;;;;;;5044908;28;43449;-80
2021/12/10 01:49:53;;;;;;;;;;;18.90;48.80;;;;;;5044992;28;42948;-80
2021/12/10 01:52:19;;;;;;;;;;;19.00;51.00;;;;;;5044761;28;43568;-80
2021/12/10 01:54:47;;;;;;;;;;;18.90;51.20;;;;;;5045183;28;42891;-77
2021/12/10 01:57:13;;;;;;;;;;;18.90;48.90;;;;;;5044386;28;43002;-77
2021/12/10 01:59:40;;;;;;;;;;;18.90;50.40;;;;;;5045185;28;42903;-80
2021/12/10 02:02:08;;;;;;;;;;;19.00;49.80;;;;;;5044583;28;43135;-80
2021/12/10 02:04:34;;;;;;;;;;;18.90;49.50;;;;;;5044770;28;42840;-79
2021/12/10 02:07:00;;;;;;;;;;;18.90;49.10;;;;;;5044521;28;43750;-81
2021/12/10 02:09:26;;;;;;;;;;;18.90;49.00;;;;;;5044394;28;42993;-79
2021/12/10 02:11:52;;;;;;;;;;;19.00;48.70;;;;;;5044380;28;43050;-80
2021/12/10 02:14:17;;;;;;;;;;;18.80;48.10;;;;;;5044424;28;43071;-78
2021/12/10 02:16:43;;;;;;;;;;;18.80;48.80;;;;;;5044993;28;44081;-79
2021/12/10 02:19:10;;;;;;;;;;;18.80;49.20;;;;;;5044683;28;42933;-80
2021/12/10 02:21:39;;;;;;;;;;;18.80;48.40;;;;;;5044744;28;43928;-78
2021/12/10 02:24:05;;;;;;;;;;;18.90;48.70;;;;;;5043178;28;42945;-79
2021/12/10 02:26:32;;;;;;;;;;;18.90;48.70;;;;;;5044586;28;43466;-79
2021/12/10 02:28:59;;;;;;;;;;;19.00;47.80;;;;;;5044943;28;42955;-78
2021/12/10 02:31:24;;;;;;;;;;;18.90;48.10;;;;;;5044814;28;43579;-80
2021/12/10 02:33:50;;;;;;;;;;;18.80;49.10;;;;;;5044965;28;43014;-80
2021/12/10 02:36:16;;;;;;;;;;;18.90;48.90;;;;;;5044085;28;42902;-78
2021/12/10 02:38:43;;;;;;;;;;;18.90;48.30;;;;;;5044816;28;42872;-79
2021/12/10 02:41:09;;;;;;;;;;;18.80;48.70;;;;;;5044894;28;42938;-78
2021/12/10 02:43:35;;;;;;;;;;;19.00;49.10;;;;;;5044678;28;43115;-79
2021/12/10 02:46:01;;;;;;;;;;;18.90;49.40;;;;;;5044097;28;42902;-79
2021/12/10 02:48:27;;;;;;;;;;;18.80;48.80;;;;;;5043915;28;42906;-79
2021/12/10 02:50:53;;;;;;;;;;;19.10;48.30;;;;;;5044690;28;43098;-79
2021/12/10 02:53:24;;;;;;;;;;;18.90;48.90;;;;;;5044639;28;42893;-80
2021/12/10 02:55:50;;;;;;;;;;;18.90;48.30;;;;;;5044367;28;42882;-79
2021/12/10 02:58:16;;;;;;;;;;;18.90;49.10;;;;;;5044355;28;42708;-80
2021/12/10 03:00:52;;;;;;;;;;;18.90;48.60;;;;;;5044512;28;42752;-80
2021/12/10 03:03:18;;;;;;;;;;;19.00;48.80;;;;;;5044347;28;43049;-80
2021/12/10 03:05:44;;;;;;;;;;;18.90;48.20;;;;;;5044179;28;42934;-80
2021/12/10 03:08:10;;;;;;;;;;;18.90;47.50;;;;;;5044138;28;42953;-80
2021/12/10 03:10:36;;;;;;;;;;;18.80;47.90;;;;;;5047493;28;42923;-80
2021/12/10 03:13:01;;;;;;;;;;;18.80;48.40;;;;;;5048107;28;42842;-80
2021/12/10 03:15:28;;;;;;;;;;;18.90;47.50;;;;;;5058092;28;43003;-79
2021/12/10 03:17:56;;;;;;;;;;;18.90;48.30;;;;;;5055421;28;59711;-80
2021/12/10 03:20:23;;;;;;;;;;;18.90;48.00;;;;;;5046909;28;42855;-79
2021/12/10 03:22:49;;;;;;;;;;;18.80;46.90;;;;;;5064290;28;43522;-80
2021/12/10 03:25:15;;;;;;;;;;;18.90;48.10;;;;;;5066168;28;42849;-80
2021/12/10 03:27:41;;;;;;;;;;;18.90;48.00;;;;;;5055442;28;43037;-80
2021/12/10 03:30:09;;;;;;;;;;;18.80;47.80;;;;;;5054659;28;43322;-79
2021/12/10 03:32:35;;;;;;;;;;;18.90;48.20;;;;;;5062110;28;42796;-80
2021/12/10 03:35:04;;;;;;;;;;;18.90;47.90;;;;;;5066855;28;42781;-80
2021/12/10 03:37:29;;;;;;;;;;;18.80;47.70;;;;;;5066084;28;43221;-81
2021/12/10 03:39:55;;;;;;;;;;;18.90;47.90;;;;;;5064850;28;43217;-78
2021/12/10 03:42:21;;;;;;;;;;;18.90;47.40;;;;;;5066191;28;43103;-78
2021/12/10 03:44:47;;;;;;;;;;;18.90;48.20;;;;;;5066816;28;42838;-80
2021/12/10 03:47:13;;;;;;;;;;;18.80;48.30;;;;;;5066453;28;42983;-79
2021/12/10 03:49:38;;;;;;;;;;;18.80;48.00;;;;;;5066330;28;42972;-79
2021/12/10 03:52:05;;;;;;;;;;;18.90;47.30;;;;;;5066640;28;42959;-77
2021/12/10 03:54:31;;;;;;;;;;;18.90;48.40;;;;;;5065945;28;43558;-78
2021/12/10 03:56:57;;;;;;;;;;;18.80;48.70;;;;;;5066856;28;42961;-79
2021/12/10 03:59:23;;;;;;;;;;;18.80;47.90;;;;;;5065981;28;43480;-79
2021/12/10 04:01:51;;;;;;;;;;;18.90;48.70;;;;;;5066017;28;43043;-79
2021/12/10 04:04:19;;;;;;;;;;;18.70;47.90;;;;;;5064887;28;42918;-78
2021/12/10 04:06:46;;;;;;;;;;;18.80;47.90;;;;;;5066393;28;42906;-78
2021/12/10 04:09:11;;;;;;;;;;;18.90;48.60;;;;;;5066053;28;44278;-78
2021/12/10 04:11:37;;;;;;;;;;;18.80;49.30;;;;;;5065840;28;42867;-79
2021/12/10 04:14:03;;;;;;;;;;;19.10;48.60;;;;;;5054178;28;43623;-81
2021/12/10 04:16:29;;;;;;;;;;;18.70;48.60;;;;;;5053088;28;43041;-80
2021/12/10 04:18:56;;;;;;;;;;;18.90;48.70;;;;;;5056233;28;42953;-80
2021/12/10 04:21:22;;;;;;;;;;;18.80;48.00;;;;;;5045391;28;42907;-79
2021/12/10 04:23:47;;;;;;;;;;;18.80;48.80;;;;;;5064260;28;43496;-80
2021/12/10 04:26:14;;;;;;;;;;;18.80;48.10;;;;;;5065878;28;42997;-80
2021/12/10 04:28:40;;;;;;;;;;;18.80;49.20;;;;;;5064518;28;43027;-78
2021/12/10 04:31:05;;;;;;;;;;;18.80;49.30;;;;;;5054648;28;42878;-78
2021/12/10 04:33:31;;;;;;;;;;;18.90;48.80;;;;;;5055468;28;43784;-80
2021/12/10 04:35:59;;;;;;;;;;;18.80;48.10;;;;;;5055982;28;42794;-81
2021/12/10 04:38:26;;;;;;;;;;;19.00;49.50;;;;;;5051355;28;42984;-81
2021/12/10 04:40:52;;;;;;;;;;;18.90;49.00;;;;;;5058981;28;42944;-82
2021/12/10 04:43:19;;;;;;;;;;;18.80;49.10;;;;;;5065812;28;43536;-81
2021/12/10 04:45:45;;;;;;;;;;;18.70;48.60;;;;;;5065565;28;43167;-80
2021/12/10 04:48:10;;;;;;;;;;;18.90;48.60;;;;;;5065873;28;43308;-83
2021/12/10 04:50:36;;;;;;;;;;;18.80;48.70;;;;;;5065469;28;43100;-82
2021/12/10 04:53:05;;;;;;;;;;;18.90;49.30;;;;;;5065822;28;43761;-82
2021/12/10 04:55:30;;;;;;;;;;;19.10;50.40;;;;;;5065330;28;42882;-82
2021/12/10 04:57:56;;;;;;;;;;;18.80;48.60;;;;;;5063359;28;43699;-82
2021/12/10 05:00:26;;;;;;;;;;;18.80;49.40;;;;;;5065645;28;42893;-82
2021/12/10 05:02:53;;;;;;;;;;;18.80;48.40;;;;;;5065229;28;43375;-81
2021/12/10 05:05:18;;;;;;;;;;;18.80;49.30;;;;;;5064571;28;42882;-82
2021/12/10 05:07:44;;;;;;;;;;;18.90;48.80;;;;;;5064854;28;43887;-78
2021/12/10 05:10:11;;;;;;;;;;;18.80;50.30;;;;;;5064558;28;42987;-82
2021/12/10 05:12:37;;;;;;;;;;;18.80;50.10;;;;;;5064994;28;42955;-80
2021/12/10 05:15:06;;;;;;;;;;;18.80;50.00;;;;;;5065195;28;42922;-80
2021/12/10 05:17:34;;;;;;;;;;;18.90;48.90;;;;;;5063784;28;43691;-80
2021/12/10 05:20:00;;;;;;;;;;;18.70;49.50;;;;;;5065167;28;42949;-80
2021/12/10 05:22:27;;;;;;;;;;;18.80;49.30;;;;;;5064091;28;43630;-80
2021/12/10 05:24:52;;;;;;;;;;;18.70;49.10;;;;;;5064885;28;42984;-79
2021/12/10 05:27:18;;;;;;;;;;;18.90;49.60;;;;;;5063163;28;43582;-80
2021/12/10 05:29:43;;;;;;;;;;;18.80;48.90;;;;;;5065283;28;42868;-78
2021/12/10 05:32:11;;;;;;;;;;;18.80;49.10;;;;;;5063537;28;43143;-78
2021/12/10 05:34:40;;;;;;;;;;;18.80;49.10;;;;;;5058479;28;43011;-79
2021/12/10 05:37:06;;;;;;;;;;;18.90;49.30;;;;;;5064584;28;43379;-77
2021/12/10 05:39:32;;;;;;;;;;;18.50;46.50;;;;;;5063519;28;43199;-79
2021/12/10 05:42:00;;;;;;;;;;;18.80;44.50;;;;;;5064087;28;43101;-80
2021/12/10 05:44:26;;;;;;;;;;;18.70;43.70;;;;;;5064379;28;44201;-78
2021/12/10 05:46:51;;;;;;;;;;;18.80;42.60;;;;;;5065161;28;43012;-80
2021/12/10 05:49:17;;;;;;;;;;;18.80;43.70;;;;;;5052530;28;42996;-77
2021/12/10 05:51:42;;;;;;;;;;;18.50;41.40;;;;;;5044831;28;43372;-77
2021/12/10 05:54:08;;;;;;;;;;;18.70;38.90;;;;;;5059483;28;43186;-78
2021/12/10 05:56:34;;;;;;;;;;;18.50;37.90;;;;;;5050767;28;43015;-78
2021/12/10 05:58:59;;;;;;;;;;;18.40;37.70;;;;;;5047980;28;43101;-79
2021/12/10 06:01:25;;;;;;;;;;;18.20;39.30;;;;;;5062019;28;43064;-77
2021/12/10 06:03:52;;;;;;;;;;;18.30;38.50;;;;;;5063490;28;42997;-78
2021/12/10 06:06:19;;;;;;;;;;;18.30;37.20;;;;;;5064085;28;43302;-78
2021/12/10 06:08:45;;;;;;;;;;;18.20;37.70;;;;;;5064643;28;42939;-79
2021/12/10 06:11:10;;;;;;;;;;;18.30;37.40;;;;;;5062694;28;43346;-79
2021/12/10 06:13:36;;;;;;;;;;;18.30;38.20;;;;;;5064128;28;43161;-79
2021/12/10 06:16:03;;;;;;;;;;;18.20;36.70;;;;;;5063508;28;43063;-79
2021/12/10 06:18:29;;;;;;;;;;;18.10;37.00;;;;;;5062835;28;42881;-77
2021/12/10 06:20:54;;;;;;;;;;;18.00;37.00;;;;;;5048390;28;43551;-78
2021/12/10 06:23:21;;;;;;;;;;;18.20;37.50;;;;;;5056503;28;43203;-80
2021/12/10 06:25:46;;;;;;;;;;;18.00;37.00;;;;;;5058803;28;43010;-78
2021/12/10 06:28:12;;;;;;;;;;;18.10;36.80;;;;;;5065440;28;43714;-76
2021/12/10 06:30:42;;;;;;;;;;;17.90;37.30;;;;;;5074873;28;43753;-78
2021/12/10 06:33:09;;;;;;;;;;;18.00;37.90;;;;;;5073110;28;42948;-77
2021/12/10 06:35:36;;;;;;;;;;;17.90;37.20;;;;;;5069259;28;43428;-76
2021/12/10 06:38:03;;;;;;;;;;;17.80;37.30;;;;;;5069545;27;43036;-79
2021/12/10 06:40:30;;;;;;;;;;;18.00;37.30;;;;;;5072203;28;43622;-77
2021/12/10 06:42:56;;;;;;;;;;;17.70;38.40;;;;;;5075623;27;43023;-77
2021/12/10 06:45:25;;;;;;;;;;;17.80;37.20;;;;;;5066949;28;44001;-77
2021/12/10 06:47:55;;;;;;;;;;;17.80;37.00;;;;;;5067587;28;42879;-77
2021/12/10 06:50:22;;;;;;;;;;;17.80;38.30;;;;;;5065940;28;44343;-77
2021/12/10 06:52:47;;;;;;;;;;;17.70;37.70;;;;;;5067585;28;42983;-78
2021/12/10 06:55:13;;;;;;;;;;;17.60;38.10;;;;;;5067455;28;44260;-81
2021/12/10 06:57:39;;;;;;;;;;;17.50;38.40;;;;;;5068161;28;42968;-79
2021/12/10 07:00:06;;;;;;;;;;;17.70;38.40;;;;;;5067588;28;42980;-79
2021/12/10 07:02:32;;;;;;;;;;;17.60;37.30;;;;;;5067689;28;42970;-78
2021/12/10 07:04:57;;;;;;;;;;;17.60;38.40;;;;;;5067978;28;43611;-81
2021/12/10 07:07:23;;;;;;;;;;;17.50;38.20;;;;;;5067458;28;42933;-79
2021/12/10 07:09:49;;;;;;;;;;;17.60;37.30;;;;;;5068979;28;43473;-80
2021/12/10 07:12:14;;;;;;;;;;;17.40;37.50;;;;;;5068648;28;42955;-79
2021/12/10 07:14:40;;;;;;;;;;;17.60;37.80;;;;;;5067483;28;42982;-80
2021/12/10 07:17:05;;;;;;;;;;;17.40;38.10;;;;;;5068047;28;42732;-80
2021/12/10 07:19:31;;;;;;;;;;;17.50;37.50;;;;;;5066199;28;44523;-77
2021/12/10 07:21:56;;;;;;;;;;;17.30;37.80;;;;;;5067405;28;42990;-79
2021/12/10 07:24:23;;;;;;;;;;;17.40;37.80;;;;;;5067524;28;42924;-79
2021/12/10 07:26:49;;;;;;;;;;;17.40;39.30;;;;;;5067951;28;42861;-80
2021/12/10 07:29:15;;;;;;;;;;;17.30;39.30;;;;;;5067837;28;42968;-77
2021/12/10 07:31:41;;;;;;;;;;;17.40;38.10;;;;;;5067943;28;42940;-80
2021/12/10 07:34:07;;;;;;;;;;;17.40;38.30;;;;;;5067854;28;43004;-78
2021/12/10 07:36:33;;;;;;;;;;;17.30;37.80;;;;;;5067514;28;42884;-78
2021/12/10 07:38:59;;;;;;;;;;;17.30;37.90;;;;;;5067649;28;42996;-77
2021/12/10 07:41:25;;;;;;;;;;;17.10;38.10;;;;;;5066906;28;42969;-78
2021/12/10 07:43:51;;;;;;;;;;;17.20;38.20;;;;;;5067211;28;43655;-79
2021/12/10 07:46:16;;;;;;;;;;;17.20;38.40;;;;;;5067789;28;42914;-80
2021/12/10 07:48:42;;;;;;;;;;;17.20;39.10;;;;;;5067847;28;42849;-81
2021/12/10 07:51:11;;;;;;;;;;;17.20;38.80;;;;;;5067290;28;42879;-79
2021/12/10 07:53:38;;;;;;;;;;;17.10;39.10;;;;;;5066949;28;43668;-77
2021/12/10 07:56:05;;;;;;;;;;;17.20;38.40;;;;;;5067443;28;42692;-78
2021/12/10 07:58:31;;;;;;;;;;;17.20;38.10;;;;;;5066794;28;43137;-77
2021/12/10 08:00:57;;;;;;;;;;;17.10;39.40;;;;;;5067164;28;43006;-78
2021/12/10 08:03:22;;;;;;;;;;;17.20;37.80;;;;;;5066826;28;42898;-78
2021/12/10 08:05:49;;;;;;;;;;;17.00;38.10;;;;;;5067480;28;43035;-78
2021/12/10 08:08:15;;;;;;;;;;;17.10;38.20;;;;;;5066024;28;43946;-80
2021/12/10 08:10:42;;;;;;;;;;;17.00;37.50;;;;;;5068327;28;42857;-79
2021/12/10 08:13:08;;;;;;;;;;;17.00;39.10;;;;;;5067061;28;43441;-80
2021/12/10 08:15:34;;;;;;;;;;;17.10;38.70;;;;;;5067926;28;43044;-80
2021/12/10 08:17:59;;;;;;;;;;;17.00;38.10;;;;;;5067487;28;43023;-77
2021/12/10 08:20:25;;;;;;;;;;;17.00;37.40;;;;;;5067114;28;42999;-78
2021/12/10 08:22:52;;;;;;;;;;;17.00;37.80;;;;;;5066894;28;43006;-79
2021/12/10 08:25:19;;;;;;;;;;;16.90;37.90;;;;;;5066852;28;42788;-80
2021/12/10 08:27:45;;;;;;;;;;;16.90;37.90;;;;;;5066955;28;43577;-79
2021/12/10 08:30:12;;;;;;;;;;;16.90;37.60;;;;;;5065517;28;42894;-80
2021/12/10 08:32:39;;;;;;;;;;;16.80;38.00;;;;;;5066819;28;42814;-78
2021/12/10 08:35:06;;;;;;;;;;;16.90;38.00;;;;;;5066792;28;42953;-78
2021/12/10 08:37:32;;;;;;;;;;;16.90;37.90;;;;;;5065182;28;42981;-81
2021/12/10 08:39:57;;;;;;;;;;;16.80;37.70;;;;;;5067134;28;42902;-78
2021/12/10 08:42:23;;;;;;;;;;;16.80;38.20;;;;;;5066107;28;43034;-77
2021/12/10 08:44:48;;;;;;;;;;;16.80;38.00;;;;;;5066388;28;42909;-80
2021/12/10 08:47:15;;;;;;;;;;;16.90;38.20;;;;;;5066747;28;43416;-77
2021/12/10 08:49:41;;;;;;;;;;;16.90;38.10;;;;;;5066577;28;42896;-80
2021/12/10 08:52:08;;;;;;;;;;;16.80;37.90;;;;;;5066313;28;42958;-78
2021/12/10 08:54:35;;;;;;;;;;;16.80;38.30;;;;;;5066517;28;42957;-79
2021/12/10 08:57:00;;;;;;;;;;;16.80;38.00;;;;;;5066507;28;43488;-78
2021/12/10 08:59:26;;;;;;;;;;;16.70;38.40;;;;;;5066599;28;42757;-77
2021/12/10 09:01:57;;;;;;;;;;;16.80;38.30;;;;;;5065782;28;43522;-78
2021/12/10 09:04:24;;;;;;;;;;;16.70;38.00;;;;;;5065833;28;43044;-78
2021/12/10 09:06:54;;;;;;;;;;;16.80;38.00;;;;;;5065884;28;43711;-77
2021/12/10 09:09:21;;;;;;;;;;;16.80;38.70;;;;;;5065972;28;42870;-79
2021/12/10 09:11:48;;;;;;;;;;;16.60;38.50;;;;;;5066251;28;43431;-81
2021/12/10 09:14:15;;;;;;;;;;;16.70;38.40;;;;;;5065743;28;43016;-81
2021/12/10 09:16:41;;;;;;;;;;;16.80;38.10;;;;;;5065960;28;42913;-79
2021/12/10 09:19:09;;;;;;;;;;;16.70;38.40;;;;;;5065901;28;43036;-78
2021/12/10 09:21:35;;;;;;;;;;;16.60;38.50;;;;;;5065638;28;42909;-80
2021/12/10 09:24:04;;;;;;;;;;;16.80;38.10;;;;;;5065905;28;42978;-78
2021/12/10 09:26:31;;;;;;;;;;;16.70;38.60;;;;;;5065917;28;43549;-78
2021/12/10 09:28:58;;;;;;;;;;;16.60;38.20;;;;;;5066256;28;42960;-80
2021/12/10 09:31:24;;;;;;;;;;;16.80;38.30;;;;;;5065820;28;42969;-78
2021/12/10 09:33:52;;;;;;;;;;;16.70;38.20;;;;;;5066222;28;42822;-81
2021/12/10 09:36:18;;;;;;;;;;;16.60;37.80;;;;;;5065614;28;42902;-79
2021/12/10 09:38:44;;;;;;;;;;;16.70;38.40;;;;;;5065677;28;42932;-79
2021/12/10 09:41:10;;;;;;;;;;;16.40;38.20;;;;;;5066054;28;43466;-78
2021/12/10 09:43:37;;;;;;;;;;;16.50;38.20;;;;;;5064162;28;42931;-77
2021/12/10 09:46:02;;;;;;;;;;;16.50;38.30;;;;;;5065711;28;43639;-77
2021/12/10 09:48:28;;;;;;;;;;;16.50;38.40;;;;;;5065815;28;43019;-78
2021/12/10 09:50:56;;;;;;;;;;;16.60;37.80;;;;;;5065645;28;43012;-78
2021/12/10 09:53:22;;;;;;;;;;;16.60;38.10;;;;;;5065839;28;43089;-77
2021/12/10 09:55:48;;;;;;;;;;;16.60;38.00;;;;;;5065397;28;42870;-78
2021/12/10 09:58:14;;;;;;;;;;;16.60;37.90;;;;;;5064410;28;43290;-78
2021/12/10 10:00:43;;;;;;;;;;;16.60;37.80;;;;;;5065918;28;42854;-82
2021/12/10 10:03:10;;;;;;;;;;;16.60;37.80;;;;;;5065813;28;43044;-77
2021/12/10 10:05:38;;;;;;;;;;;16.50;38.20;;;;;;5065537;28;43426;-78
2021/12/10 10:08:08;;;;;;;;;;;16.60;38.80;;;;;;5065272;28;42992;-78
2021/12/10 10:10:34;;;;;;;;;;;16.60;39.00;;;;;;5065109;28;42938;-79
2021/12/10 10:13:00;;;;;;;;;;;16.50;39.10;;;;;;5065041;28;42815;-78
2021/12/10 10:15:28;;;;;;;;;;;16.50;39.40;;;;;;5065060;28;43691;-78
2021/12/10 10:17:55;;;;;;;;;;;16.50;39.30;;;;;;5064765;28;42906;-78
2021/12/10 10:20:21;;;;;;;;;;;16.50;39.40;;;;;;5065588;28;43309;-78
2021/12/10 10:22:49;;;;;;;;;;;16.60;39.60;;;;;;5065608;28;42701;-77
2021/12/10 10:25:15;;;;;;;;;;;16.50;39.80;;;;;;5065030;28;42922;-78
2021/12/10 10:27:41;;;;;;;;;;;16.50;39.90;;;;;;5065089;28;42842;-77
2021/12/10 10:30:07;;;;;;;;;;;16.50;39.90;;;;;;5065236;28;43110;-79
2021/12/10 10:32:34;;;;;;;;;;;16.50;39.90;;;;;;5064538;28;42936;-78
2021/12/10 10:35:04;;;;;;;;;;;16.50;40.50;;;;;;5064821;28;43443;-78
2021/12/10 10:37:30;;;;;;;;;;;16.50;40.90;;;;;;5065459;28;42890;-78
2021/12/10 10:39:56;;;;;;;;;;;16.40;40.90;;;;;;5064897;28;42985;-78
2021/12/10 10:42:24;;;;;;;;;;;16.40;41.20;;;;;;5065110;28;42945;-79
2021/12/10 10:44:51;;;;;;;;;;;16.80;42.00;;;;;;5064857;28;42863;-79
2021/12/10 10:47:22;;;;;;;;;;;16.50;41.70;;;;;;5064861;28;42949;-79
2021/12/10 10:49:49;;;;;;;;;;;16.50;42.90;;;;;;5065080;28;43055;-78
2021/12/10 10:52:21;;;;;;;;;;;16.40;43.80;;;;;;5064643;28;42766;-79
2021/12/10 10:54:47;;;;;;;;;;;16.50;44.70;;;;;;5064868;28;42839;-81
2021/12/10 10:57:15;;;;;;;;;;;16.40;45.50;;;;;;5064857;28;42985;-80
2021/12/10 10:59:41;;;;;;;;;;;16.30;46.70;;;;;;5064719;28;42934;-77
2021/12/10 11:02:08;;;;;;;;;;;16.30;46.60;;;;;;5065096;28;42850;-81
2021/12/10 11:04:34;;;;;;;;;;;16.50;47.90;;;;;;5064328;28;44522;-78
2021/12/10 11:07:16;;;;;;;;;;;16.50;52.70;;;;;;5064901;28;42881;-80
2021/12/10 11:09:46;;;;;;;;;;;16.40;55.00;;;;;;5064098;28;43845;-78
2021/12/10 11:12:13;;;;;;;;;;;16.50;49.00;;;;;;5064809;28;42836;-78
2021/12/10 11:14:44;;;;;;;;;;;16.40;50.20;;;;;;5064422;28;43067;-80
2021/12/10 11:17:14;;;;;;;;;;;16.20;49.60;;;;;;5064173;28;42949;-82
2021/12/10 11:19:41;;;;;;;;;;;16.40;49.20;;;;;;5064036;28;43509;-81
2021/12/10 11:22:15;;;;;;;;;;;16.20;46.10;;;;;;5064781;28;42874;-78
2021/12/10 11:24:47;;;;;;;;;;;16.40;43.80;;;;;;5064025;28;43860;-78
2021/12/10 11:27:31;;;;;;;;;;;16.40;42.70;;;;;;5064265;28;42775;-78
2021/12/10 11:30:03;;;;;;;;;;;16.40;42.60;;;;;;5065990;28;43071;-80
2021/12/10 11:32:28;;;;;;;;;;;16.40;42.60;;;;;;5068015;28;42905;-80
2021/12/10 11:35:03;;;;;;;;;;;16.40;43.70;;;;;;5065659;28;44552;-81
2021/12/10 11:37:41;;;;;;;;;;;16.40;42.40;;;;;;5065538;28;42909;-80
2021/12/10 11:40:22;;;;;;;;;;;16.30;42.50;;;;;;5066771;28;44533;-81
2021/12/10 11:42:55;;;;;;;;;;;16.40;42.50;;;;;;5066948;28;43036;-78
2021/12/10 11:48:25;;;;;;;;;;;16.30;42.30;;;;;;5067276;28;42712;-81
2021/12/10 11:51:09;;;;;;;;;;;16.20;42.60;;;;;;5067648;28;43354;-78
2021/12/10 11:53:45;;;;;;;;;;;16.20;41.90;;;;;;5066815;28;42785;-78
2021/12/10 11:56:18;;;;;;;;;;;16.30;42.20;;;;;;5069425;28;44734;-78
2021/12/10 11:58:56;;;;;;;;;;;16.40;41.70;;;;;;5058658;28;43066;-78
2021/12/10 12:01:22;;;;;;;;;;;16.40;42.70;;;;;;5046677;28;42938;-78
2021/12/10 12:03:47;;;;;;;;;;;16.20;43.80;;;;;;5046712;28;42950;-77
2021/12/10 12:06:16;;;;;;;;;;;16.30;44.70;;;;;;5044854;28;45138;-78
2021/12/10 12:08:41;;;;;;;;;;;16.30;43.70;;;;;;5046808;28;42986;-78
2021/12/10 12:11:08;;;;;;;;;;;16.30;45.70;;;;;;5045599;28;43064;-78
2021/12/10 12:13:42;;;;;;;;;;;16.30;43.30;;;;;;5047081;28;42930;-76
2021/12/10 12:16:13;;;;;;;;;;;16.30;42.10;;;;;;5054809;28;43489;-75
2021/12/10 12:18:46;;;;;;;;;;;16.40;43.00;;;;;;5044989;28;43000;-74
2021/12/10 12:26:48;;;;;;;;;;;16.60;40.20;;;;;;5042881;28;43312;-74
2021/12/10 12:29:14;;;;;;;;;;;16.40;41.10;;;;;;5045869;28;43289;-75
2021/12/10 12:31:42;;;;;;;;;;;16.50;40.90;;;;;;5045662;28;43524;-75
2021/12/10 12:34:10;;;;;;;;;;;16.40;40.60;;;;;;5050798;28;43306;-74
2021/12/10 12:36:42;;;;;;;;;;;16.40;40.60;;;;;;5057801;28;43572;-75
2021/12/10 12:39:10;;;;;;;;;;;16.40;40.50;;;;;;5065940;28;42853;-75
2021/12/10 12:41:38;;;;;;;;;;;16.40;41.00;;;;;;5065346;28;43766;-75
2021/12/10 12:44:12;;;;;;;;;;;16.50;40.90;;;;;;5065253;28;42961;-75
2021/12/10 12:46:53;;;;;;;;;;;16.50;40.80;;;;;;5065820;28;43039;-75
2021/12/10 12:49:19;;;;;;;;;;;16.40;40.70;;;;;;5065627;28;42968;-76
2021/12/10 12:52:03;;;;;;;;;;;16.50;41.30;;;;;;5065701;28;43011;-76
2021/12/10 12:54:29;;;;;;;;;;;16.50;40.90;;;;;;5065266;28;42907;-77
2021/12/10 12:56:55;;;;;;;;;;;16.50;41.40;;;;;;5065557;28;42870;-76
2021/12/10 12:59:21;;;;;;;;;;;16.40;41.20;;;;;;5066177;28;42953;-76
2021/12/10 13:01:49;;;;;;;;;;;16.50;41.50;;;;;;5065896;28;43029;-76
2021/12/10 13:04:16;;;;;;;;;;;16.40;41.30;;;;;;5066041;28;42814;-76
2021/12/10 13:06:50;;;;;;;;;;;16.60;41.50;;;;;;5066267;28;43478;-76
2021/12/10 13:09:16;;;;;;;;;;;16.50;41.20;;;;;;5065737;28;43061;-80
2021/12/10 13:14:22;;;;;;;;;;;16.60;41.00;;;;;;5065365;28;42970;-76
2021/12/10 13:16:56;;;;;;;;;;;16.60;41.70;;;;;;5065654;28;42801;-76
2021/12/10 13:19:23;;;;;;;;;;;16.50;41.50;;;;;;5065964;28;43047;-77
2021/12/10 13:21:54;;;;;;;;;;;16.50;41.80;;;;;;5065642;28;43600;-76
2021/12/10 13:24:19;;;;;;;;;;;16.50;41.70;;;;;;5065807;28;42996;-79
2021/12/10 13:26:46;;;;;;;;;;;16.40;42.20;;;;;;5065580;28;42931;-79
2021/12/10 13:29:11;;;;;;;;;;;16.50;42.60;;;;;;5065751;28;42825;-80
2021/12/10 13:31:37;;;;;;;;;;;16.90;43.10;;;;;;5065653;28;43018;-79
2021/12/10 13:34:04;;;;;;;;;;;16.50;42.80;;;;;;5065809;28;42788;-79
2021/12/10 13:36:30;;;;;;;;;;;16.60;43.10;;;;;;5065556;28;42873;-78
2021/12/10 13:38:56;;;;;;;;;;;16.70;43.10;;;;;;5065502;28;43727;-79
2021/12/10 13:41:22;;;;;;;;;;;16.50;43.70;;;;;;5064112;28;42933;-79
2021/12/10 13:43:50;;;;;;;;;;;16.60;43.40;;;;;;5063649;28;43326;-79
2021/12/10 13:46:16;;;;;;;;;;;16.60;43.50;;;;;;5065242;28;43126;-79
2021/12/10 13:48:52;;;;;;;;;;;16.60;43.80;;;;;;5065506;28;42918;-79
2021/12/10 13:51:23;;;;;;;;;;;16.60;43.70;;;;;;5065097;28;43571;-79
2021/12/10 13:54:21;;;;;;;;;;;16.50;43.80;;;;;;5064025;28;42945;-79
2021/12/10 13:56:50;;;;;;;;;;;16.60;43.80;;;;;;5063792;28;43242;-79
2021/12/10 13:59:19;;;;;;;;;;;16.60;43.90;;;;;;5065292;28;42760;-79
2021/12/10 14:01:46;;;;;;;;;;;16.60;44.10;;;;;;5065009;28;43060;-79
2021/12/10 14:04:13;;;;;;;;;;;16.60;44.00;;;;;;5065122;28;43000;-79
2021/12/10 14:06:42;;;;;;;;;;;16.60;44.00;;;;;;5064486;28;43520;-79
2021/12/10 14:09:08;;;;;;;;;;;16.60;43.90;;;;;;5063129;28;42942;-79
2021/12/10 14:11:51;;;;;;;;;;;16.60;44.10;;;;;;5064705;28;43445;-79
2021/12/10 14:14:17;;;;;;;;;;;16.60;44.20;;;;;;5064620;28;42771;-79
2021/12/10 14:16:50;;;;;;;;;;;16.60;44.20;;;;;;5064562;28;43606;-79
2021/12/10 14:19:36;;;;;;;;;;;16.70;44.10;;;;;;5064331;28;42970;-79
2021/12/10 14:22:03;;;;;;;;;;;16.60;44.10;;;;;;5063124;28;42736;-79
2021/12/10 14:24:33;;;;;;;;;;;16.70;44.20;;;;;;5064074;28;42956;-79
2021/12/10 14:27:03;;;;;;;;;;;16.70;44.30;;;;;;5063756;28;44454;-79
2021/12/10 14:29:29;;;;;;;;;;;16.60;44.20;;;;;;5063657;28;42972;-80
2021/12/10 14:31:54;;;;;;;;;;;17.10;44.60;;;;;;5064167;28;43431;-79
2021/12/10 14:34:21;;;;;;;;;;;16.70;44.40;;;;;;5064204;28;42999;-78
2021/12/10 14:36:58;;;;;;;;;;;16.70;44.30;;;;;;5064357;28;42928;-79
2021/12/10 14:39:24;;;;;;;;;;;16.70;44.30;;;;;;5064177;28;42953;-79
2021/12/10 14:41:51;;;;;;;;;;;16.70;44.40;;;;;;5064194;28;43336;-80